sensor_id;sensor_type;location;lat;lon;timestamp;pressure;altitude;pressure_sealevel;temperature;humidity
49393;BME280;35268;42.642;23.308;2022-07-06T00:01:10;93884.25;;;20.28;74.84
49393;BME280;35268;42.642;23.308;2022-07-06T00:03:35;93892.94;;;20.07;74.67
49393;BME280;35268;42.642;23.308;2022-07-06T00:06:00;93910.56;;;19.90;74.92
49393;BME280;35268;42.642;23.308;2022-07-06T00:08:26;93902.94;;;19.65;75.70
49393;BME280;35268;42.642;23.308;2022-07-06T00:10:52;93907.59;;;19.34;77.54
49393;BME280;35268;42.642;23.308;2022-07-06T00:13:17;93910.41;;;19.11;79.11
49393;BME280;35268;42.642;23.308;2022-07-06T00:15:43;93913.66;;;18.97;81.23
49393;BME280;35268;42.642;23.308;2022-07-06T00:18:08;93924.69;;;18.85;83.04
49393;BME280;35268;42.642;23.308;2022-07-06T00:20:34;93937.63;;;18.76;84.70
49393;BME280;35268;42.642;23.308;2022-07-06T00:22:59;93945.31;;;18.74;85.16
49393;BME280;35268;42.642;23.308;2022-07-06T00:25:24;93934.41;;;18.67;86.40
49393;BME280;35268;42.642;23.308;2022-07-06T00:27:50;93938.50;;;18.57;86.75
49393;BME280;35268;42.642;23.308;2022-07-06T00:30:15;93949.72;;;18.59;87.13
49393;BME280;35268;42.642;23.308;2022-07-06T00:32:41;93954.75;;;18.60;87.97
49393;BME280;35268;42.642;23.308;2022-07-06T00:35:06;93955.94;;;18.63;87.79
49393;BME280;35268;42.642;23.308;2022-07-06T00:37:32;93959.13;;;18.69;87.60
49393;BME280;35268;42.642;23.308;2022-07-06T00:39:57;93954.59;;;18.76;87.70
49393;BME280;35268;42.642;23.308;2022-07-06T00:42:23;93960.84;;;18.80;87.70
49393;BME280;35268;42.642;23.308;2022-07-06T00:44:49;93952.41;;;18.82;87.11
49393;BME280;35268;42.642;23.308;2022-07-06T00:47:15;93952.81;;;18.84;86.84
49393;BME280;35268;42.642;23.308;2022-07-06T00:49:40;93946.72;;;18.87;87.16
49393;BME280;35268;42.642;23.308;2022-07-06T00:52:24;93947.53;;;18.91;87.21
49393;BME280;35268;42.642;23.308;2022-07-06T00:54:50;93948.25;;;18.88;87.17
49393;BME280;35268;42.642;23.308;2022-07-06T00:57:15;93945.59;;;18.92;87.14
49393;BME280;35268;42.642;23.308;2022-07-06T00:59:42;93941.41;;;18.94;87.26
49393;BME280;35268;42.642;23.308;2022-07-06T01:02:08;93931.78;;;18.97;87.17
49393;BME280;35268;42.642;23.308;2022-07-06T01:04:33;93918.69;;;18.99;86.08
49393;BME280;35268;42.642;23.308;2022-07-06T01:06:58;93906.41;;;19.01;85.14
49393;BME280;35268;42.642;23.308;2022-07-06T01:09:24;93908.28;;;19.01;85.51
49393;BME280;35268;42.642;23.308;2022-07-06T01:11:50;93907.22;;;19.06;85.40
49393;BME280;35268;42.642;23.308;2022-07-06T01:14:17;93901.06;;;19.05;85.04
49393;BME280;35268;42.642;23.308;2022-07-06T01:16:43;93899.53;;;19.08;84.44
49393;BME280;35268;42.642;23.308;2022-07-06T01:19:08;93911.09;;;19.08;84.49
49393;BME280;35268;42.642;23.308;2022-07-06T01:21:37;93901.41;;;19.03;83.89
49393;BME280;35268;42.642;23.308;2022-07-06T01:24:03;93900.56;;;18.99;83.87
49393;BME280;35268;42.642;23.308;2022-07-06T01:26:28;93900.16;;;18.97;84.15
49393;BME280;35268;42.642;23.308;2022-07-06T01:28:54;93912.88;;;18.97;83.92
49393;BME280;35268;42.642;23.308;2022-07-06T01:31:23;93917.41;;;18.89;83.84
49393;BME280;35268;42.642;23.308;2022-07-06T01:33:49;93908.34;;;18.78;84.16
49393;BME280;35268;42.642;23.308;2022-07-06T01:36:16;93909.03;;;18.71;84.34
49393;BME280;35268;42.642;23.308;2022-07-06T01:38:49;93915.41;;;18.59;84.94
49393;BME280;35268;42.642;23.308;2022-07-06T01:41:15;93908.38;;;18.55;85.53
49393;BME280;35268;42.642;23.308;2022-07-06T01:43:41;93902.88;;;18.48;85.97
49393;BME280;35268;42.642;23.308;2022-07-06T01:46:07;93905.13;;;18.42;86.02
49393;BME280;35268;42.642;23.308;2022-07-06T01:48:33;93901.56;;;18.38;86.73
49393;BME280;35268;42.642;23.308;2022-07-06T01:50:58;93905.41;;;18.37;86.36
49393;BME280;35268;42.642;23.308;2022-07-06T01:53:24;93906.19;;;18.37;86.13
49393;BME280;35268;42.642;23.308;2022-07-06T01:55:49;93907.75;;;18.38;85.88
49393;BME280;35268;42.642;23.308;2022-07-06T01:58:15;93913.06;;;18.35;86.10
49393;BME280;35268;42.642;23.308;2022-07-06T02:00:40;93912.31;;;18.34;86.04
49393;BME280;35268;42.642;23.308;2022-07-06T02:03:06;93921.59;;;18.37;85.34
49393;BME280;35268;42.642;23.308;2022-07-06T02:05:31;93921.25;;;18.38;85.30
49393;BME280;35268;42.642;23.308;2022-07-06T02:07:57;93915.50;;;18.40;85.00
49393;BME280;35268;42.642;23.308;2022-07-06T02:10:22;93911.28;;;18.42;84.65
49393;BME280;35268;42.642;23.308;2022-07-06T02:12:49;93911.63;;;18.41;84.54
49393;BME280;35268;42.642;23.308;2022-07-06T02:15:14;93915.53;;;18.43;84.06
49393;BME280;35268;42.642;23.308;2022-07-06T02:17:40;93910.19;;;18.47;83.30
49393;BME280;35268;42.642;23.308;2022-07-06T02:20:06;93917.16;;;18.48;83.57
49393;BME280;35268;42.642;23.308;2022-07-06T02:22:31;93909.09;;;18.52;83.62
49393;BME280;35268;42.642;23.308;2022-07-06T02:24:57;93911.44;;;18.53;83.66
49393;BME280;35268;42.642;23.308;2022-07-06T02:27:22;93917.31;;;18.59;83.27
49393;BME280;35268;42.642;23.308;2022-07-06T02:29:48;93911.59;;;18.64;83.07
49393;BME280;35268;42.642;23.308;2022-07-06T02:32:13;93905.13;;;18.69;82.29
49393;BME280;35268;42.642;23.308;2022-07-06T02:34:38;93904.38;;;18.72;79.56
49393;BME280;35268;42.642;23.308;2022-07-06T02:37:04;93908.00;;;18.79;80.32
49393;BME280;35268;42.642;23.308;2022-07-06T02:39:30;93901.44;;;18.80;79.90
49393;BME280;35268;42.642;23.308;2022-07-06T02:41:55;93904.22;;;18.84;80.08
49393;BME280;35268;42.642;23.308;2022-07-06T02:44:21;93898.09;;;18.87;80.05
49393;BME280;35268;42.642;23.308;2022-07-06T02:46:46;93902.75;;;18.90;79.99
49393;BME280;35268;42.642;23.308;2022-07-06T02:49:12;93904.75;;;18.93;79.69
49393;BME280;35268;42.642;23.308;2022-07-06T02:51:37;93913.66;;;18.97;80.05
49393;BME280;35268;42.642;23.308;2022-07-06T02:54:02;93908.69;;;18.99;80.10
49393;BME280;35268;42.642;23.308;2022-07-06T02:56:28;93912.56;;;19.02;79.84
49393;BME280;35268;42.642;23.308;2022-07-06T02:58:54;93907.22;;;19.06;80.27
49393;BME280;35268;42.642;23.308;2022-07-06T03:01:19;93907.63;;;19.08;80.09
49393;BME280;35268;42.642;23.308;2022-07-06T03:03:45;93909.56;;;19.07;79.34
49393;BME280;35268;42.642;23.308;2022-07-06T03:06:10;93904.09;;;19.03;78.89
49393;BME280;35268;42.642;23.308;2022-07-06T03:08:36;93914.13;;;19.03;79.01
49393;BME280;35268;42.642;23.308;2022-07-06T03:11:01;93918.31;;;19.00;79.52
49393;BME280;35268;42.642;23.308;2022-07-06T03:13:27;93909.41;;;18.96;78.56
49393;BME280;35268;42.642;23.308;2022-07-06T03:15:54;93904.75;;;18.93;77.81
49393;BME280;35268;42.642;23.308;2022-07-06T03:18:19;93911.19;;;18.85;77.36
49393;BME280;35268;42.642;23.308;2022-07-06T03:20:44;93911.47;;;18.80;75.92
49393;BME280;35268;42.642;23.308;2022-07-06T03:23:10;93919.41;;;18.69;74.47
49393;BME280;35268;42.642;23.308;2022-07-06T03:25:35;93920.38;;;18.57;74.73
49393;BME280;35268;42.642;23.308;2022-07-06T03:28:01;93917.88;;;18.45;74.88
49393;BME280;35268;42.642;23.308;2022-07-06T03:30:27;93918.91;;;18.37;75.91
49393;BME280;35268;42.642;23.308;2022-07-06T03:32:52;93928.44;;;18.31;75.58
49393;BME280;35268;42.642;23.308;2022-07-06T03:35:18;93937.19;;;18.24;76.13
49393;BME280;35268;42.642;23.308;2022-07-06T03:37:43;93934.72;;;18.15;74.85
49393;BME280;35268;42.642;23.308;2022-07-06T03:40:09;93917.81;;;18.18;76.05
49393;BME280;35268;42.642;23.308;2022-07-06T03:42:36;93931.78;;;18.24;75.67
49393;BME280;35268;42.642;23.308;2022-07-06T03:45:03;93926.00;;;18.25;76.13
49393;BME280;35268;42.642;23.308;2022-07-06T03:47:29;93932.22;;;18.26;76.20
49393;BME280;35268;42.642;23.308;2022-07-06T03:49:55;93933.06;;;18.30;75.85
49393;BME280;35268;42.642;23.308;2022-07-06T03:52:20;93930.34;;;18.30;76.23
49393;BME280;35268;42.642;23.308;2022-07-06T03:54:45;93939.94;;;18.28;76.12
49393;BME280;35268;42.642;23.308;2022-07-06T03:57:11;93939.16;;;18.27;75.23
49393;BME280;35268;42.642;23.308;2022-07-06T03:59:41;93938.38;;;18.27;74.69
49393;BME280;35268;42.642;23.308;2022-07-06T04:02:06;93939.22;;;18.31;75.33
49393;BME280;35268;42.642;23.308;2022-07-06T04:04:33;93940.06;;;18.35;75.21
49393;BME280;35268;42.642;23.308;2022-07-06T04:06:59;93946.66;;;18.37;75.70
49393;BME280;35268;42.642;23.308;2022-07-06T04:09:25;93940.19;;;18.42;76.30
49393;BME280;35268;42.642;23.308;2022-07-06T04:11:50;93949.47;;;18.44;75.47
49393;BME280;35268;42.642;23.308;2022-07-06T04:14:16;93939.81;;;18.43;76.35
49393;BME280;35268;42.642;23.308;2022-07-06T04:16:41;93950.41;;;18.56;76.68
49393;BME280;35268;42.642;23.308;2022-07-06T04:19:07;93953.13;;;18.56;76.40
49393;BME280;35268;42.642;23.308;2022-07-06T04:21:32;93951.25;;;18.60;74.30
49393;BME280;35268;42.642;23.308;2022-07-06T04:23:58;93944.41;;;18.66;74.78
49393;BME280;35268;42.642;23.308;2022-07-06T04:26:23;93943.75;;;18.73;75.51
49393;BME280;35268;42.642;23.308;2022-07-06T04:28:49;93941.50;;;18.78;75.45
49393;BME280;35268;42.642;23.308;2022-07-06T04:31:14;93955.09;;;18.82;75.65
49393;BME280;35268;42.642;23.308;2022-07-06T04:33:41;93952.53;;;18.89;75.63
49393;BME280;35268;42.642;23.308;2022-07-06T04:36:08;93963.75;;;18.91;74.82
49393;BME280;35268;42.642;23.308;2022-07-06T04:38:34;93968.31;;;18.87;74.36
49393;BME280;35268;42.642;23.308;2022-07-06T04:40:59;93972.06;;;18.82;74.56
49393;BME280;35268;42.642;23.308;2022-07-06T04:43:25;93962.50;;;18.85;75.09
49393;BME280;35268;42.642;23.308;2022-07-06T04:45:50;93970.94;;;18.83;75.77
49393;BME280;35268;42.642;23.308;2022-07-06T04:48:15;93983.94;;;18.78;75.18
49393;BME280;35268;42.642;23.308;2022-07-06T04:50:41;94001.94;;;18.70;74.50
49393;BME280;35268;42.642;23.308;2022-07-06T04:53:06;94005.84;;;18.73;76.00
49393;BME280;35268;42.642;23.308;2022-07-06T04:55:32;93996.78;;;18.61;76.55
49393;BME280;35268;42.642;23.308;2022-07-06T04:57:57;93999.50;;;18.61;76.43
49393;BME280;35268;42.642;23.308;2022-07-06T05:00:23;94012.06;;;18.31;77.43
49393;BME280;35268;42.642;23.308;2022-07-06T05:02:49;94019.81;;;18.13;78.02
49393;BME280;35268;42.642;23.308;2022-07-06T05:05:14;94012.81;;;18.08;78.24
49393;BME280;35268;42.642;23.308;2022-07-06T05:07:39;94015.31;;;17.97;79.13
49393;BME280;35268;42.642;23.308;2022-07-06T05:10:07;94019.00;;;17.89;79.72
49393;BME280;35268;42.642;23.308;2022-07-06T05:12:33;94017.09;;;17.90;80.00
49393;BME280;35268;42.642;23.308;2022-07-06T05:14:58;94011.75;;;17.93;79.63
49393;BME280;35268;42.642;23.308;2022-07-06T05:17:25;94021.91;;;18.00;80.35
49393;BME280;35268;42.642;23.308;2022-07-06T05:19:50;94018.91;;;18.05;79.44
49393;BME280;35268;42.642;23.308;2022-07-06T05:22:15;94024.88;;;18.14;78.19
49393;BME280;35268;42.642;23.308;2022-07-06T05:24:41;94028.69;;;18.33;78.21
49393;BME280;35268;42.642;23.308;2022-07-06T05:27:06;94035.91;;;18.48;79.03
49393;BME280;35268;42.642;23.308;2022-07-06T05:29:32;94027.25;;;18.39;75.03
49393;BME280;35268;42.642;23.308;2022-07-06T05:31:57;94037.34;;;18.42;76.19
49393;BME280;35268;42.642;23.308;2022-07-06T05:34:23;94038.13;;;18.42;76.19
49393;BME280;35268;42.642;23.308;2022-07-06T05:36:48;94034.91;;;18.56;75.16
49393;BME280;35268;42.642;23.308;2022-07-06T05:39:13;94035.31;;;18.58;74.12
49393;BME280;35268;42.642;23.308;2022-07-06T05:41:44;94028.47;;;18.64;75.77
49393;BME280;35268;42.642;23.308;2022-07-06T05:44:09;94032.38;;;18.67;73.05
49393;BME280;35268;42.642;23.308;2022-07-06T05:46:35;94042.84;;;18.72;73.46
49393;BME280;35268;42.642;23.308;2022-07-06T05:49:00;94042.91;;;18.76;74.38
49393;BME280;35268;42.642;23.308;2022-07-06T05:51:44;94040.88;;;18.69;72.83
49393;BME280;35268;42.642;23.308;2022-07-06T05:54:09;94056.00;;;18.74;73.12
49393;BME280;35268;42.642;23.308;2022-07-06T05:56:35;94040.31;;;18.79;72.76
49393;BME280;35268;42.642;23.308;2022-07-06T05:59:00;94037.63;;;18.79;72.67
49393;BME280;35268;42.642;23.308;2022-07-06T06:01:25;94039.81;;;18.97;74.51
49393;BME280;35268;42.642;23.308;2022-07-06T06:03:51;94042.91;;;18.95;72.02
49393;BME280;35268;42.642;23.308;2022-07-06T06:06:16;94044.56;;;19.03;73.59
49393;BME280;35268;42.642;23.308;2022-07-06T06:08:42;94044.72;;;19.14;72.74
49393;BME280;35268;42.642;23.308;2022-07-06T06:11:07;94033.03;;;19.07;71.31
49393;BME280;35268;42.642;23.308;2022-07-06T06:13:33;94047.06;;;19.16;72.17
49393;BME280;35268;42.642;23.308;2022-07-06T06:15:58;94040.91;;;19.15;71.37
49393;BME280;35268;42.642;23.308;2022-07-06T06:18:24;94039.75;;;19.16;71.05
49393;BME280;35268;42.642;23.308;2022-07-06T06:20:49;94045.63;;;19.22;71.02
49393;BME280;35268;42.642;23.308;2022-07-06T06:23:15;94040.00;;;19.34;71.17
49393;BME280;35268;42.642;23.308;2022-07-06T06:25:40;94038.13;;;19.38;70.34
49393;BME280;35268;42.642;23.308;2022-07-06T06:28:07;94038.19;;;19.42;69.53
49393;BME280;35268;42.642;23.308;2022-07-06T06:30:33;94027.81;;;19.48;69.78
49393;BME280;35268;42.642;23.308;2022-07-06T06:33:17;94034.06;;;19.52;70.26
49393;BME280;35268;42.642;23.308;2022-07-06T06:38:09;94027.53;;;19.53;72.10
49393;BME280;35268;42.642;23.308;2022-07-06T06:40:35;94034.94;;;19.59;72.61
49393;BME280;35268;42.642;23.308;2022-07-06T06:43:00;94031.47;;;19.59;72.02
49393;BME280;35268;42.642;23.308;2022-07-06T06:45:26;94032.25;;;19.59;72.41
49393;BME280;35268;42.642;23.308;2022-07-06T06:47:52;94024.59;;;19.65;72.34
49393;BME280;35268;42.642;23.308;2022-07-06T06:50:17;94032.41;;;19.70;72.58
49393;BME280;35268;42.642;23.308;2022-07-06T06:52:43;94026.94;;;19.67;71.79
49393;BME280;35268;42.642;23.308;2022-07-06T06:55:08;94028.28;;;19.80;72.25
49393;BME280;35268;42.642;23.308;2022-07-06T06:57:34;94027.84;;;19.74;71.99
49393;BME280;35268;42.642;23.308;2022-07-06T06:59:59;94033.91;;;19.68;71.50
49393;BME280;35268;42.642;23.308;2022-07-06T07:02:25;94036.13;;;19.62;71.27
49393;BME280;35268;42.642;23.308;2022-07-06T07:04:50;94030.28;;;19.56;71.07
49393;BME280;35268;42.642;23.308;2022-07-06T07:07:15;94035.63;;;19.53;70.31
49393;BME280;35268;42.642;23.308;2022-07-06T07:09:41;94032.25;;;19.59;70.76
49393;BME280;35268;42.642;23.308;2022-07-06T07:12:07;94031.19;;;19.68;71.69
49393;BME280;35268;42.642;23.308;2022-07-06T07:14:32;94037.91;;;19.77;69.94
49393;BME280;35268;42.642;23.308;2022-07-06T07:16:58;94038.03;;;19.88;69.62
49393;BME280;35268;42.642;23.308;2022-07-06T07:19:23;94031.56;;;19.93;70.46
49393;BME280;35268;42.642;23.308;2022-07-06T07:21:49;94039.25;;;19.91;71.15
49393;BME280;35268;42.642;23.308;2022-07-06T07:24:14;94044.44;;;20.03;71.32
49393;BME280;35268;42.642;23.308;2022-07-06T07:26:40;94032.69;;;19.92;69.51
49393;BME280;35268;42.642;23.308;2022-07-06T07:29:05;94036.44;;;19.83;69.61
49393;BME280;35268;42.642;23.308;2022-07-06T07:31:31;94034.25;;;19.93;70.20
49393;BME280;35268;42.642;23.308;2022-07-06T07:33:56;94028.84;;;19.93;70.27
49393;BME280;35268;42.642;23.308;2022-07-06T07:36:24;94046.22;;;19.92;70.44
49393;BME280;35268;42.642;23.308;2022-07-06T07:38:50;94042.13;;;20.05;70.98
49393;BME280;35268;42.642;23.308;2022-07-06T07:41:15;94037.25;;;20.18;70.46
49393;BME280;35268;42.642;23.308;2022-07-06T07:43:42;94038.59;;;20.35;69.71
49393;BME280;35268;42.642;23.308;2022-07-06T07:46:08;94036.38;;;20.44;70.25
49393;BME280;35268;42.642;23.308;2022-07-06T07:48:33;94032.50;;;20.45;69.12
49393;BME280;35268;42.642;23.308;2022-07-06T07:50:59;94038.41;;;20.54;69.00
49393;BME280;35268;42.642;23.308;2022-07-06T07:53:24;94033.31;;;20.49;69.14
49393;BME280;35268;42.642;23.308;2022-07-06T07:55:49;94039.53;;;20.50;68.66
49393;BME280;35268;42.642;23.308;2022-07-06T07:58:15;94030.25;;;20.51;68.03
49393;BME280;35268;42.642;23.308;2022-07-06T08:00:40;94030.41;;;20.65;67.97
49393;BME280;35268;42.642;23.308;2022-07-06T08:03:06;94029.19;;;20.59;67.66
49393;BME280;35268;42.642;23.308;2022-07-06T08:05:31;94024.88;;;20.54;68.17
49393;BME280;35268;42.642;23.308;2022-07-06T08:07:57;94033.31;;;20.46;68.07
49393;BME280;35268;42.642;23.308;2022-07-06T08:10:22;94034.13;;;20.53;67.49
49393;BME280;35268;42.642;23.308;2022-07-06T08:12:48;94035.75;;;20.58;67.20
49393;BME280;35268;42.642;23.308;2022-07-06T08:15:13;94035.66;;;20.51;67.37
49393;BME280;35268;42.642;23.308;2022-07-06T08:17:39;94040.50;;;20.68;67.20
49393;BME280;35268;42.642;23.308;2022-07-06T08:20:06;94037.13;;;20.82;68.11
49393;BME280;35268;42.642;23.308;2022-07-06T08:22:32;94047.69;;;20.94;67.68
49393;BME280;35268;42.642;23.308;2022-07-06T08:24:57;94042.00;;;21.07;67.28
49393;BME280;35268;42.642;23.308;2022-07-06T08:27:23;94032.47;;;21.27;65.46
49393;BME280;35268;42.642;23.308;2022-07-06T08:29:49;94038.03;;;21.45;66.43
49393;BME280;35268;42.642;23.308;2022-07-06T08:32:14;94035.00;;;21.54;65.64
49393;BME280;35268;42.642;23.308;2022-07-06T08:34:40;94028.84;;;21.64;66.39
49393;BME280;35268;42.642;23.308;2022-07-06T08:37:05;94033.56;;;21.74;63.27
49393;BME280;35268;42.642;23.308;2022-07-06T08:39:31;94030.50;;;21.87;63.62
49393;BME280;35268;42.642;23.308;2022-07-06T08:41:57;94017.00;;;22.01;64.76
49393;BME280;35268;42.642;23.308;2022-07-06T08:44:24;94011.97;;;22.10;62.57
49393;BME280;35268;42.642;23.308;2022-07-06T08:46:51;94021.34;;;22.20;61.13
49393;BME280;35268;42.642;23.308;2022-07-06T08:49:18;94021.38;;;22.23;60.99
49393;BME280;35268;42.642;23.308;2022-07-06T08:51:44;94020.94;;;22.18;62.12
49393;BME280;35268;42.642;23.308;2022-07-06T08:54:10;94022.88;;;22.17;61.58
49393;BME280;35268;42.642;23.308;2022-07-06T08:56:36;94028.31;;;22.17;63.32
49393;BME280;35268;42.642;23.308;2022-07-06T08:59:02;94035.28;;;22.11;62.52
49393;BME280;35268;42.642;23.308;2022-07-06T09:01:28;94024.75;;;22.06;61.92
49393;BME280;35268;42.642;23.308;2022-07-06T09:03:55;94023.63;;;22.14;62.46
49393;BME280;35268;42.642;23.308;2022-07-06T09:06:25;94020.53;;;22.12;62.10
49393;BME280;35268;42.642;23.308;2022-07-06T09:08:53;94024.81;;;22.13;61.13
49393;BME280;35268;42.642;23.308;2022-07-06T09:11:21;94016.34;;;22.26;61.53
49393;BME280;35268;42.642;23.308;2022-07-06T09:13:46;94019.88;;;22.33;60.87
49393;BME280;35268;42.642;23.308;2022-07-06T09:16:14;94015.25;;;22.52;60.87
49393;BME280;35268;42.642;23.308;2022-07-06T09:18:39;94023.81;;;22.72;61.89
49393;BME280;35268;42.642;23.308;2022-07-06T09:21:08;94025.34;;;22.69;59.94
49393;BME280;35268;42.642;23.308;2022-07-06T09:23:34;94024.94;;;22.56;60.73
49393;BME280;35268;42.642;23.308;2022-07-06T09:26:05;94022.97;;;22.42;61.06
49393;BME280;35268;42.642;23.308;2022-07-06T09:28:43;94029.94;;;22.29;61.12
49393;BME280;35268;42.642;23.308;2022-07-06T09:31:09;94017.88;;;22.23;60.79
49393;BME280;35268;42.642;23.308;2022-07-06T09:33:35;94028.41;;;22.42;61.22
49393;BME280;35268;42.642;23.308;2022-07-06T09:36:01;94014.84;;;22.39;59.90
49393;BME280;35268;42.642;23.308;2022-07-06T09:38:27;94033.81;;;22.32;60.15
49393;BME280;35268;42.642;23.308;2022-07-06T09:40:54;94023.66;;;22.21;61.24
49393;BME280;35268;42.642;23.308;2022-07-06T09:43:21;94021.38;;;22.31;60.76
49393;BME280;35268;42.642;23.308;2022-07-06T09:45:54;94028.44;;;22.53;61.05
49393;BME280;35268;42.642;23.308;2022-07-06T09:48:22;94007.50;;;22.64;59.70
49393;BME280;35268;42.642;23.308;2022-07-06T09:50:53;94010.22;;;22.75;59.27
49393;BME280;35268;42.642;23.308;2022-07-06T09:53:20;94009.09;;;23.01;60.29
49393;BME280;35268;42.642;23.308;2022-07-06T09:55:51;93997.06;;;23.10;58.53
49393;BME280;35268;42.642;23.308;2022-07-06T09:58:17;94007.56;;;23.15;57.88
49393;BME280;35268;42.642;23.308;2022-07-06T10:00:43;94009.09;;;23.01;59.22
49393;BME280;35268;42.642;23.308;2022-07-06T10:03:10;94010.66;;;23.10;59.54
49393;BME280;35268;42.642;23.308;2022-07-06T10:05:42;94007.16;;;23.06;58.01
49393;BME280;35268;42.642;23.308;2022-07-06T10:08:08;94007.91;;;22.92;58.20
49393;BME280;35268;42.642;23.308;2022-07-06T10:10:36;94015.31;;;23.06;59.23
49393;BME280;35268;42.642;23.308;2022-07-06T10:13:02;94006.00;;;23.03;57.82
49393;BME280;35268;42.642;23.308;2022-07-06T10:15:29;94010.63;;;22.95;57.62
49393;BME280;35268;42.642;23.308;2022-07-06T10:17:59;93997.44;;;22.87;57.74
49393;BME280;35268;42.642;23.308;2022-07-06T10:20:28;93999.75;;;22.74;58.84
49393;BME280;35268;42.642;23.308;2022-07-06T10:22:54;94004.41;;;22.77;57.74
49393;BME280;35268;42.642;23.308;2022-07-06T10:25:25;93997.03;;;22.81;59.64
49393;BME280;35268;42.642;23.308;2022-07-06T10:27:52;93995.47;;;22.76;58.24
49393;BME280;35268;42.642;23.308;2022-07-06T10:30:18;93990.44;;;22.86;58.04
49393;BME280;35268;42.642;23.308;2022-07-06T10:32:46;93984.22;;;22.92;57.72
49393;BME280;35268;42.642;23.308;2022-07-06T10:35:15;93991.59;;;22.99;57.86
49393;BME280;35268;42.642;23.308;2022-07-06T10:37:42;93992.38;;;22.99;57.96
49393;BME280;35268;42.642;23.308;2022-07-06T10:40:08;93988.91;;;22.88;56.72
49393;BME280;35268;42.642;23.308;2022-07-06T10:43:00;93998.19;;;22.91;57.05
49393;BME280;35268;42.642;23.308;2022-07-06T10:50:48;93998.25;;;23.09;57.92
49393;BME280;35268;42.642;23.308;2022-07-06T10:53:16;93983.44;;;22.99;58.11
49393;BME280;35268;42.642;23.308;2022-07-06T10:55:49;93985.03;;;23.14;56.73
49393;BME280;35268;42.642;23.308;2022-07-06T11:01:05;93996.69;;;23.18;56.61
49393;BME280;35268;42.642;23.308;2022-07-06T11:03:43;93987.72;;;23.29;56.93
49393;BME280;35268;42.642;23.308;2022-07-06T11:11:16;93981.53;;;23.21;55.65
49393;BME280;35268;42.642;23.308;2022-07-06T11:16:30;93997.81;;;23.39;56.61
49393;BME280;35268;42.642;23.308;2022-07-06T11:21:38;93977.56;;;23.54;56.25
49393;BME280;35268;42.642;23.308;2022-07-06T11:24:06;93970.94;;;23.62;55.50
49393;BME280;35268;42.642;23.308;2022-07-06T11:26:32;93974.03;;;23.64;55.01
49393;BME280;35268;42.642;23.308;2022-07-06T11:29:05;93968.59;;;23.68;54.82
49393;BME280;35268;42.642;23.308;2022-07-06T11:31:37;93977.91;;;23.74;54.18
49393;BME280;35268;42.642;23.308;2022-07-06T11:34:04;93971.72;;;23.77;53.54
49393;BME280;35268;42.642;23.308;2022-07-06T11:36:30;93973.22;;;23.82;55.54
49393;BME280;35268;42.642;23.308;2022-07-06T11:38:56;93980.59;;;23.92;54.04
49393;BME280;35268;42.642;23.308;2022-07-06T11:41:21;93963.06;;;23.97;52.25
49393;BME280;35268;42.642;23.308;2022-07-06T11:43:47;93960.69;;;24.06;54.05
49393;BME280;35268;42.642;23.308;2022-07-06T11:46:24;93954.03;;;24.14;52.38
49393;BME280;35268;42.642;23.308;2022-07-06T11:51:29;93968.38;;;24.22;49.96
49393;BME280;35268;42.642;23.308;2022-07-06T11:53:59;93947.47;;;24.08;50.86
49393;BME280;35268;42.642;23.308;2022-07-06T11:56:26;93950.94;;;24.12;49.59
49393;BME280;35268;42.642;23.308;2022-07-06T11:58:59;93957.13;;;24.16;49.21
49393;BME280;35268;42.642;23.308;2022-07-06T12:01:27;93937.41;;;23.94;51.08
49393;BME280;35268;42.642;23.308;2022-07-06T12:03:53;93961.09;;;24.01;51.86
49393;BME280;35268;42.642;23.308;2022-07-06T12:06:21;93937.34;;;24.09;51.52
49393;BME280;35268;42.642;23.308;2022-07-06T12:08:53;93944.19;;;24.35;50.53
49393;BME280;35268;42.642;23.308;2022-07-06T12:11:33;93939.50;;;24.35;48.81
49393;BME280;35268;42.642;23.308;2022-07-06T12:14:01;93952.31;;;24.42;50.39
49393;BME280;35268;42.642;23.308;2022-07-06T12:16:32;93960.00;;;24.61;48.49
49393;BME280;35268;42.642;23.308;2022-07-06T12:19:00;93943.66;;;24.58;49.06
49393;BME280;35268;42.642;23.308;2022-07-06T12:21:26;93944.13;;;24.42;49.87
49393;BME280;35268;42.642;23.308;2022-07-06T12:23:53;93939.13;;;24.37;49.28
49393;BME280;35268;42.642;23.308;2022-07-06T12:26:21;93950.00;;;24.40;48.96
49393;BME280;35268;42.642;23.308;2022-07-06T12:29:04;93944.09;;;24.49;48.03
49393;BME280;35268;42.642;23.308;2022-07-06T12:31:37;93947.22;;;24.55;48.16
49393;BME280;35268;42.642;23.308;2022-07-06T12:34:04;93946.03;;;24.52;50.37
49393;BME280;35268;42.642;23.308;2022-07-06T12:36:30;93946.72;;;24.67;50.91
49393;BME280;35268;42.642;23.308;2022-07-06T12:38:56;93948.63;;;24.74;50.43
49393;BME280;35268;42.642;23.308;2022-07-06T12:47:35;93939.47;;;24.42;48.83
49393;BME280;35268;42.642;23.308;2022-07-06T12:50:05;93933.88;;;24.64;48.26
49393;BME280;35268;42.642;23.308;2022-07-06T12:52:31;93937.63;;;24.81;48.93
49393;BME280;35268;42.642;23.308;2022-07-06T12:55:00;93924.19;;;25.08;49.29
49393;BME280;35268;42.642;23.308;2022-07-06T12:57:26;93926.97;;;25.42;48.45
49393;BME280;35268;42.642;23.308;2022-07-06T13:02:32;93923.78;;;25.48;48.40
49393;BME280;35268;42.642;23.308;2022-07-06T13:05:08;93929.50;;;25.60;48.02
49393;BME280;35268;42.642;23.308;2022-07-06T13:07:44;93914.19;;;25.70;46.68
49393;BME280;35268;42.642;23.308;2022-07-06T13:10:11;93925.75;;;25.81;46.45
49393;BME280;35268;42.642;23.308;2022-07-06T13:12:38;93912.38;;;25.91;45.14
49393;BME280;35268;42.642;23.308;2022-07-06T13:15:05;93913.19;;;26.18;47.35
49393;BME280;35268;42.642;23.308;2022-07-06T13:17:30;93914.31;;;26.21;44.78
49393;BME280;35268;42.642;23.308;2022-07-06T13:19:56;93911.28;;;26.70;44.01